createdAt,value
2023-05-21T00:00:25.273Z,101170.98
2023-05-21T00:01:29.915Z,101174.99
2023-05-21T00:02:34.708Z,101169.88
2023-05-21T00:03:39.541Z,101172.66
2023-05-21T00:04:44.189Z,101177.00
2023-05-21T00:05:48.931Z,101174.22
2023-05-21T00:06:54.949Z,101170.66
2023-05-21T00:07:59.802Z,101176.66
2023-05-21T00:09:05.591Z,101180.67
2023-05-21T00:10:11.944Z,101173.10
2023-05-21T00:11:16.996Z,101173.10
2023-05-21T00:12:22.123Z,101174.66
2023-05-21T00:13:27.280Z,101179.45
2023-05-21T00:14:32.397Z,101177.11
2023-05-21T00:15:37.325Z,101178.00
2023-05-21T00:16:42.877Z,101176.55
2023-05-21T00:17:47.491Z,101183.78
2023-05-21T00:18:52.368Z,101180.36
2023-05-21T00:19:57.385Z,101175.23
2023-05-21T00:21:02.239Z,101168.12
2023-05-21T00:22:08.864Z,101180.13
2023-05-21T00:23:13.877Z,101169.11
2023-05-21T00:24:18.558Z,101174.68
2023-05-21T00:25:23.144Z,101172.34
2023-05-21T00:26:28.127Z,101174.01
2023-05-21T00:27:34.521Z,101175.67
2023-05-21T00:28:39.623Z,101178.59
2023-05-21T00:29:44.731Z,101175.47
2023-05-21T00:30:49.328Z,101172.69
2023-05-21T00:31:54.415Z,101169.57
2023-05-21T00:32:56.916Z,101170.80
2023-05-21T00:34:01.233Z,101173.23
2023-05-21T00:35:07.291Z,101178.80
2023-05-21T00:36:12.121Z,101173.23
2023-05-21T00:37:17.354Z,101174.91
2023-05-21T00:38:21.977Z,101173.78
2023-05-21T00:39:26.598Z,101170.22
2023-05-21T00:40:32.651Z,101169.11
2023-05-21T00:41:37.002Z,101168.33
2023-05-21T00:42:41.484Z,101167.58
2023-05-21T00:43:46.261Z,101168.80
2023-05-21T00:44:50.805Z,101166.02
2023-05-21T00:45:55.428Z,101168.80
2023-05-21T00:46:59.910Z,101162.12
2023-05-21T00:48:06.807Z,101170.46
2023-05-21T00:49:12.573Z,101171.69
2023-05-21T00:50:17.187Z,101164.12
2023-05-21T00:51:22.191Z,101163.34
2023-05-21T00:52:27.302Z,101158.56
2023-05-21T00:53:32.056Z,101155.00
2023-05-21T00:54:36.683Z,101158.22
2023-05-21T00:55:41.899Z,101161.00
2023-05-21T00:56:47.129Z,101158.22
2023-05-21T00:57:52.566Z,101166.56
2023-05-21T00:58:57.599Z,101157.44
2023-05-21T01:00:02.612Z,101165.00
2023-05-21T01:01:07.374Z,101170.56
2023-05-21T01:02:12.551Z,101168.56
2023-05-21T01:03:17.677Z,101168.56
2023-05-21T01:04:22.243Z,101172.13
2023-05-21T01:05:27.249Z,101169.34
2023-05-21T01:06:32.340Z,101172.91
2023-05-21T01:07:39.062Z,101163.00
2023-05-21T01:08:43.388Z,101160.22
2023-05-21T01:09:48.400Z,101164.22
2023-05-21T01:15:01.448Z,101163.11
2023-05-21T01:16:08.045Z,101163.55
2023-05-21T01:17:13.248Z,101159.20
2023-05-21T01:18:17.860Z,101163.98
2023-05-21T01:19:21.456Z,101165.98
2023-05-21T01:20:26.061Z,101162.42
2023-05-21T01:21:30.683Z,101163.65
2023-05-21T01:22:36.014Z,101157.75
2023-05-21T01:23:40.528Z,101162.53
2023-05-21T01:24:46.818Z,101158.19
2023-05-21T01:25:51.941Z,101153.09
2023-05-21T01:26:57.134Z,101153.20
2023-05-21T01:28:02.404Z,101152.86
2023-05-21T01:29:08.932Z,101158.08
2023-05-21T01:30:15.753Z,101148.96
2023-05-21T01:31:24.730Z,101148.52
2023-05-21T01:33:41.223Z,101154.09
2023-05-21T01:36:04.358Z,101150.86
2023-05-21T01:38:45.311Z,101152.53
2023-05-21T01:41:08.233Z,101148.63
2023-05-21T01:42:13.474Z,101148.96
2023-05-21T01:43:18.184Z,101150.19
2023-05-21T01:44:23.400Z,101154.97
2023-05-21T01:45:28.512Z,101154.19
2023-05-21T01:46:33.441Z,101148.28
2023-05-21T01:47:38.510Z,101156.63
2023-05-21T01:48:43.619Z,101149.50
2023-05-21T01:49:50.218Z,101147.95
2023-05-21T01:50:55.603Z,101149.60
2023-05-21T01:52:01.701Z,101145.39
2023-05-21T01:53:06.861Z,101148.61
2023-05-21T01:54:11.560Z,101152.17
2023-05-21T01:55:16.646Z,101149.83
2023-05-21T01:56:21.144Z,101147.49
2023-05-21T01:57:26.487Z,101146.03
2023-05-21T01:58:32.011Z,101148.47
2023-05-21T01:59:37.495Z,101148.13
2023-05-21T02:00:41.927Z,101150.56
2023-05-21T02:01:47.179Z,101155.81
2023-05-21T02:02:52.265Z,101154.69
2023-05-21T02:03:57.446Z,101151.23
2023-05-21T02:05:03.057Z,101155.22
2023-05-21T02:06:08.119Z,101153.22
2023-05-21T02:07:13.339Z,101154.44
2023-05-21T02:08:18.661Z,101158.44
2023-05-21T02:09:23.284Z,101157.66
2023-05-21T02:10:28.483Z,101162.87
2023-05-21T02:11:33.628Z,101155.41
2023-05-21T02:12:38.759Z,101154.26
2023-05-21T02:13:43.593Z,101161.50
2023-05-21T02:14:48.200Z,101163.94
2023-05-21T02:15:52.686Z,101161.94
2023-05-21T02:16:57.748Z,101154.04
2023-05-21T02:18:02.427Z,101161.94
2023-05-21T02:19:07.521Z,101159.59
2023-05-21T02:20:11.917Z,101158.47
2023-05-21T02:21:16.231Z,101160.13
2023-05-21T02:22:20.823Z,101158.56
2023-05-21T02:23:26.063Z,101157.00
2023-05-21T02:24:30.695Z,101158.22
2023-05-21T02:25:36.113Z,101162.55
2023-05-21T02:26:41.491Z,101162.13
2023-05-21T02:27:46.542Z,101164.12
2023-05-21T02:28:51.916Z,101169.67
2023-05-21T02:29:56.251Z,101164.98
2023-05-21T02:31:01.104Z,101168.20
2023-05-21T02:32:07.343Z,101173.84
2023-05-21T02:33:12.483Z,101169.54
2023-05-21T02:34:17.736Z,101164.86
2023-05-21T02:35:22.795Z,101167.20
2023-05-21T02:36:27.353Z,101171.53
2023-05-21T02:37:32.861Z,101172.75
2023-05-21T02:38:38.020Z,101163.20
2023-05-21T02:39:43.132Z,101164.86
2023-05-21T02:40:46.016Z,101164.86
2023-05-21T02:41:50.253Z,101162.08
2023-05-21T02:42:54.648Z,101160.86
2023-05-21T02:43:59.208Z,101159.64
2023-05-21T02:45:04.860Z,101163.20
2023-05-21T02:46:11.089Z,101160.86
2023-05-21T02:47:16.318Z,101160.08
2023-05-21T02:48:21.060Z,101167.63
2023-05-21T02:49:26.082Z,101159.30
2023-05-21T02:50:31.329Z,101164.08
2023-05-21T02:51:36.402Z,101163.30
2023-05-21T02:52:41.215Z,101156.53
2023-05-21T02:53:45.799Z,101164.86
2023-05-21T02:54:51.330Z,101167.98
2023-05-21T02:55:55.870Z,101165.98
2023-05-21T02:57:01.343Z,101165.98
2023-05-21T02:58:06.905Z,101164.42
2023-05-21T02:59:13.047Z,101157.73
2023-05-21T03:00:17.400Z,101162.95
2023-05-21T03:01:22.291Z,101155.83
2023-05-21T03:02:27.431Z,101160.17
2023-05-21T03:03:32.448Z,101169.63
2023-05-21T03:04:36.798Z,101164.42
2023-05-21T03:05:41.215Z,101168.76
2023-05-21T03:06:46.896Z,101170.29
2023-05-21T03:07:51.986Z,101167.52
2023-05-21T03:08:57.176Z,101170.29
2023-05-21T03:10:02.422Z,101174.19
2023-05-21T03:11:06.952Z,101174.88
2023-05-21T03:12:11.405Z,101163.34
2023-05-21T03:13:16.417Z,101170.36
2023-05-21T03:14:21.542Z,101178.26
2023-05-21T03:15:26.143Z,101176.61
2023-05-21T03:16:30.992Z,101173.05
2023-05-21T03:17:36.280Z,101179.04
2023-05-21T03:18:41.351Z,101177.31
2023-05-21T03:19:46.766Z,101171.07
2023-05-21T03:20:51.456Z,101179.09
2023-05-21T03:21:56.004Z,101175.53
2023-05-21T03:23:01.122Z,101176.74
2023-05-21T03:24:10.173Z,101181.61
2023-05-21T03:25:15.298Z,101182.04
2023-05-21T03:26:20.503Z,101172.93
2023-05-21T03:27:26.206Z,101172.50
2023-05-21T03:28:31.339Z,101178.39
2023-05-21T03:29:36.842Z,101185.51
2023-05-21T03:30:41.511Z,101179.95
2023-05-21T03:31:48.436Z,101195.05
2023-05-21T03:32:53.479Z,101194.70
2023-05-21T03:33:58.092Z,101184.38
2023-05-21T03:35:04.245Z,101186.37
2023-05-21T03:36:10.594Z,101193.84
2023-05-21T03:37:15.866Z,101195.05
2023-05-21T03:38:20.456Z,101193.67
2023-05-21T03:39:24.972Z,101202.86
2023-05-21T03:40:29.524Z,101192.19
2023-05-21T03:41:34.748Z,101194.53
2023-05-21T03:42:41.645Z,101198.44
2023-05-21T03:43:46.818Z,101192.45
2023-05-21T03:44:51.427Z,101197.14
2023-05-21T03:45:58.275Z,101196.70
2023-05-21T03:47:04.884Z,101196.27
2023-05-21T03:48:11.268Z,101191.84
2023-05-21T03:49:16.865Z,101192.19
2023-05-21T03:50:22.340Z,101192.07
2023-05-21T03:51:27.162Z,101201.53
2023-05-21T03:52:32.356Z,101194.33
2023-05-21T03:53:37.979Z,101195.89
2023-05-21T03:54:44.133Z,101191.98
2023-05-21T03:55:49.212Z,101189.98
2023-05-21T03:56:53.960Z,101191.89
2023-05-21T03:57:59.490Z,101191.02
2023-05-21T03:59:05.265Z,101195.70
2023-05-21T04:00:14.122Z,101202.05
2023-05-21T04:01:21.405Z,101192.33
2023-05-21T04:02:28.359Z,101205.52
2023-05-21T04:03:33.835Z,101188.72
2023-05-21T04:04:38.795Z,101195.05
2023-05-21T04:05:46.948Z,101186.37
2023-05-21T04:06:53.912Z,101194.62
2023-05-21T04:07:59.560Z,101190.19
2023-05-21T04:09:04.914Z,101193.41
2023-05-21T04:10:10.333Z,101192.97
2023-05-21T04:11:15.534Z,101188.08
2023-05-21T04:12:20.897Z,101196.32
2023-05-21T04:13:25.623Z,101191.89
2023-05-21T04:14:30.630Z,101191.80
2023-05-21T04:15:35.655Z,101188.16
2023-05-21T04:16:40.495Z,101192.84
2023-05-21T04:17:45.051Z,101182.41
2023-05-21T04:18:50.136Z,101185.19
2023-05-21T04:19:55.183Z,101171.30
2023-05-21T04:21:00.232Z,101174.86
2023-05-21T04:22:05.003Z,101175.20
2023-05-21T04:23:10.346Z,101177.55
2023-05-21T04:24:15.388Z,101175.55
2023-05-21T04:25:24.996Z,101178.23
2023-05-21T04:26:29.529Z,101172.23
2023-05-21T04:27:35.179Z,101182.04
2023-05-21T04:28:39.848Z,101181.48
2023-05-21T04:29:44.464Z,101179.37
2023-05-21T04:30:49.755Z,101176.06
2023-05-21T04:31:54.837Z,101176.75
2023-05-21T04:33:00.113Z,101175.84
2023-05-21T04:34:05.057Z,101180.08
2023-05-21T04:35:09.768Z,101175.64
2023-05-21T04:36:14.396Z,101181.11
2023-05-21T04:37:18.841Z,101179.88
2023-05-21T04:38:23.928Z,101167.88
2023-05-21T04:39:28.755Z,101167.31
2023-05-21T04:40:33.687Z,101169.55
2023-05-21T04:41:41.594Z,101174.12
2023-05-21T04:43:53.673Z,101162.00
2023-05-21T04:44:59.125Z,101166.22
2023-05-21T04:46:04.849Z,101163.34
2023-05-21T04:47:09.547Z,101171.13
2023-05-21T04:48:14.738Z,101170.11
2023-05-21T04:49:19.375Z,101168.33
2023-05-21T04:50:24.097Z,101166.11
2023-05-21T04:51:28.760Z,101171.12
2023-05-21T04:52:33.863Z,101173.77
2023-05-21T04:53:38.472Z,101167.64
2023-05-21T04:54:43.470Z,101175.77
2023-05-21T04:55:49.217Z,101164.38
2023-05-21T04:56:53.663Z,101170.87
2023-05-21T04:57:59.077Z,101166.14
2023-05-21T04:59:05.613Z,101158.67
2023-05-21T05:00:11.953Z,101167.98
2023-05-21T05:01:18.386Z,101161.61
2023-05-21T05:02:24.119Z,101167.69
2023-05-21T05:03:29.105Z,101167.44
2023-05-21T05:04:32.531Z,101160.52
2023-05-21T05:05:37.039Z,101161.63
2023-05-21T05:06:41.748Z,101162.40
2023-05-21T05:07:46.214Z,101153.91
2023-05-21T05:08:51.818Z,101150.06
2023-05-21T05:09:58.631Z,101151.05
2023-05-21T05:11:16.638Z,101157.59
2023-05-21T05:12:21.226Z,101147.67
2023-05-21T05:13:26.488Z,101153.38
2023-05-21T05:14:31.733Z,101155.19
2023-05-21T05:15:37.159Z,101150.06
2023-05-21T05:16:42.103Z,101154.41
2023-05-21T05:17:46.761Z,101143.26
2023-05-21T05:18:51.205Z,101146.38
2023-05-21T05:19:56.005Z,101146.05
2023-05-21T05:21:00.843Z,101146.70
2023-05-21T05:22:05.547Z,101144.56
2023-05-21T05:23:11.038Z,101146.12
2023-05-21T05:24:15.711Z,101150.02
2023-05-21T05:25:21.416Z,101141.64
2023-05-21T05:26:26.699Z,101152.64
2023-05-21T05:27:31.846Z,101150.95
2023-05-21T05:28:37.003Z,101152.06
2023-05-21T05:29:41.891Z,101154.27
2023-05-21T05:30:47.138Z,101150.41
2023-05-21T05:32:00.016Z,101152.61
2023-05-21T05:33:04.704Z,101154.36
2023-05-21T05:34:09.498Z,101155.65
2023-05-21T05:35:15.172Z,101151.22
2023-05-21T05:36:20.263Z,101152.18
2023-05-21T05:37:25.383Z,101159.16
2023-05-21T05:38:29.940Z,101139.48
2023-05-21T05:39:34.322Z,101146.80
2023-05-21T05:40:39.459Z,101144.93
2023-05-21T05:41:44.739Z,101154.27
2023-05-21T05:42:49.301Z,101152.42
2023-05-21T05:43:53.940Z,101155.08
2023-05-21T05:44:58.872Z,101150.73
2023-05-21T05:46:03.653Z,101146.88
2023-05-21T05:47:08.337Z,101150.12
2023-05-21T05:48:13.394Z,101147.65
2023-05-21T05:49:18.084Z,101147.81
2023-05-21T05:50:23.799Z,101149.08
2023-05-21T05:51:28.452Z,101147.98
2023-05-21T05:52:33.676Z,101143.33
2023-05-21T05:53:38.765Z,101140.58
2023-05-21T05:54:43.233Z,101144.59
2023-05-21T05:55:47.932Z,101146.62
2023-05-21T05:56:52.731Z,101133.54
2023-05-21T05:57:55.168Z,101143.17
2023-05-21T05:59:01.094Z,101145.16
2023-05-21T06:00:08.343Z,101138.16
2023-05-21T06:01:15.362Z,101141.11
2023-05-21T06:02:20.703Z,101140.48
2023-05-21T06:03:25.199Z,101138.58
2023-05-21T06:04:30.901Z,101135.93
2023-05-21T06:05:36.551Z,101140.59
2023-05-21T06:06:41.516Z,101134.05
2023-05-21T06:07:46.563Z,101134.38
2023-05-21T06:08:51.527Z,101133.77
2023-05-21T06:09:57.165Z,101134.54
2023-05-21T06:11:02.177Z,101138.58
2023-05-21T06:12:12.187Z,101131.91
2023-05-21T06:13:15.712Z,101129.60
2023-05-21T06:14:20.895Z,101121.98
2023-05-21T06:16:47.851Z,101129.39
2023-05-21T06:17:52.376Z,101132.34
2023-05-21T06:18:56.988Z,101132.75
2023-05-21T06:20:02.320Z,101139.27
2023-05-21T06:21:07.404Z,101132.56
2023-05-21T06:22:12.377Z,101133.62
2023-05-21T06:23:17.462Z,101141.38
2023-05-21T06:24:24.204Z,101136.42
2023-05-21T06:25:30.252Z,101135.95
2023-05-21T06:26:35.479Z,101134.23
2023-05-21T06:27:40.618Z,101135.78
2023-05-21T06:28:47.256Z,101135.58
2023-05-21T06:29:51.716Z,101132.61
2023-05-21T06:30:56.462Z,101136.32
2023-05-21T06:32:02.555Z,101126.80
2023-05-21T06:33:08.084Z,101140.80
2023-05-21T06:34:12.703Z,101139.89
2023-05-21T06:35:17.979Z,101136.86
2023-05-21T06:36:23.153Z,101134.53
2023-05-21T06:37:28.666Z,101139.36
2023-05-21T06:38:33.434Z,101130.95
2023-05-21T06:39:38.044Z,101121.30
2023-05-21T06:40:43.892Z,101129.23
2023-05-21T06:41:49.544Z,101127.48
2023-05-21T06:43:12.024Z,101126.54
2023-05-21T06:44:16.992Z,101126.37
2023-05-21T06:45:21.261Z,101120.59
2023-05-21T06:46:28.283Z,101121.98
2023-05-21T06:47:33.776Z,101120.52
2023-05-21T06:48:38.916Z,101114.92
2023-05-21T06:49:43.577Z,101125.00
2023-05-21T06:50:48.378Z,101115.95
2023-05-21T06:51:52.978Z,101118.58
2023-05-21T06:52:57.710Z,101125.05
2023-05-21T06:54:02.330Z,101116.16
2023-05-21T06:55:09.255Z,101109.79
2023-05-21T06:56:21.626Z,101116.94
2023-05-21T06:57:26.800Z,101110.56
2023-05-21T06:58:31.486Z,101108.71
2023-05-21T06:59:36.697Z,101105.81
2023-05-21T07:00:41.999Z,101100.98
2023-05-21T07:01:47.011Z,101107.37
2023-05-21T07:02:52.238Z,101107.72
2023-05-21T07:03:56.769Z,101108.19
2023-05-21T07:05:02.592Z,101094.84
2023-05-21T07:06:07.778Z,101093.28
2023-05-21T07:07:12.934Z,101102.29
2023-05-21T07:08:18.065Z,101101.47
2023-05-21T07:09:23.150Z,101088.53
2023-05-21T07:10:27.726Z,101095.38
2023-05-21T07:11:33.430Z,101099.53
2023-05-21T07:12:38.455Z,101099.17
2023-05-21T07:13:44.072Z,101092.73
2023-05-21T07:14:49.282Z,101093.59
2023-05-21T07:15:54.402Z,101088.11
2023-05-21T07:16:59.170Z,101095.27
2023-05-21T07:18:04.200Z,101086.86
2023-05-21T07:19:09.094Z,101100.69
2023-05-21T07:20:13.948Z,101092.58
2023-05-21T07:21:19.441Z,101091.50
2023-05-21T07:22:27.393Z,101085.78
2023-05-21T07:23:32.029Z,101092.17
2023-05-21T07:24:37.032Z,101095.74
2023-05-21T07:25:41.566Z,101093.72
2023-05-21T07:26:46.845Z,101082.98
2023-05-21T07:27:51.435Z,101083.76
2023-05-21T07:28:56.193Z,101087.03
2023-05-21T07:30:00.696Z,101077.26
2023-05-21T07:31:06.876Z,101081.13
2023-05-21T07:32:13.346Z,101078.81
2023-05-21T07:33:18.529Z,101088.95
2023-05-21T07:34:24.559Z,101074.27
2023-05-21T07:35:29.671Z,101076.72
2023-05-21T07:36:34.374Z,101069.16
2023-05-21T07:37:39.521Z,101065.69
2023-05-21T07:38:42.805Z,101085.14
2023-05-21T07:39:47.444Z,101088.90
2023-05-21T07:40:51.862Z,101073.63
2023-05-21T07:41:56.407Z,101083.58
2023-05-21T07:43:01.160Z,101091.41
2023-05-21T07:44:05.664Z,101073.03
2023-05-21T07:45:11.053Z,101077.09
2023-05-21T07:46:19.100Z,101078.94
2023-05-21T07:47:25.533Z,101069.45
2023-05-21T07:48:30.674Z,101066.95
2023-05-21T07:49:37.586Z,101066.47
2023-05-21T07:50:39.949Z,101067.83
2023-05-21T07:51:45.414Z,101060.33
2023-05-21T07:52:50.094Z,101064.28
2023-05-21T07:53:55.344Z,101066.22
2023-05-21T07:55:03.406Z,101061.88
2023-05-21T07:56:09.754Z,101058.88
2023-05-21T07:57:15.130Z,101060.98
2023-05-21T07:58:30.922Z,101057.50
2023-05-21T07:59:35.325Z,101054.98
2023-05-21T08:05:12.709Z,101076.17
2023-05-21T08:06:18.386Z,101067.46
2023-05-21T08:07:23.444Z,101061.38
2023-05-21T08:08:28.072Z,101068.73
2023-05-21T08:09:34.097Z,101074.93
2023-05-21T08:10:39.248Z,101071.35
2023-05-21T08:11:45.366Z,101068.06
2023-05-21T08:12:50.651Z,101061.45
2023-05-21T08:13:55.805Z,101068.14
2023-05-21T08:15:00.183Z,101063.41
2023-05-21T08:16:07.023Z,101059.82
2023-05-21T08:17:12.226Z,101059.63
2023-05-21T08:18:16.660Z,101055.56
2023-05-21T08:19:21.441Z,101063.20
2023-05-21T08:20:27.069Z,101072.69
2023-05-21T08:21:31.524Z,101063.79
2023-05-21T08:22:36.738Z,101062.80
2023-05-21T08:23:41.276Z,101061.53
2023-05-21T08:24:46.368Z,101064.92
2023-05-21T08:25:50.448Z,101060.66
2023-05-21T08:26:55.915Z,101050.56
2023-05-21T08:28:01.274Z,101058.30
2023-05-21T08:29:05.899Z,101044.84
2023-05-21T08:30:10.103Z,101051.32
2023-05-21T08:31:15.525Z,101047.73
2023-05-21T08:32:20.263Z,101055.67
2023-05-21T08:33:25.412Z,101048.80
2023-05-21T08:34:30.694Z,101061.58
2023-05-21T08:35:38.092Z,101052.09
2023-05-21T08:36:49.039Z,101046.67
2023-05-21T08:38:12.159Z,101050.16
2023-05-21T08:39:21.994Z,101063.27
2023-05-21T08:40:26.438Z,101047.89
2023-05-21T08:41:33.111Z,101042.56
2023-05-21T08:42:52.064Z,101045.95
2023-05-21T08:43:58.493Z,101049.53
2023-05-21T08:45:04.249Z,101036.13
2023-05-21T08:46:08.836Z,101038.05
2023-05-21T08:47:16.416Z,101048.17
2023-05-21T08:48:20.758Z,101040.63
2023-05-21T08:49:27.152Z,101051.09
2023-05-21T08:50:33.053Z,101031.72
2023-05-21T08:51:39.789Z,101031.77
2023-05-21T08:52:44.475Z,101033.52
2023-05-21T08:53:49.121Z,101030.71
2023-05-21T08:54:54.375Z,101030.45
2023-05-21T08:55:59.485Z,101035.50
2023-05-21T08:57:06.593Z,101044.41
2023-05-21T08:58:10.084Z,101045.36
2023-05-21T08:59:14.796Z,101041.98
2023-05-21T09:00:18.977Z,101039.94
2023-05-21T09:01:26.434Z,101037.14
2023-05-21T09:02:42.272Z,101038.69
2023-05-21T09:03:47.103Z,101038.69
2023-05-21T09:06:04.554Z,101033.27
2023-05-21T09:07:10.851Z,101025.53
2023-05-21T09:08:31.460Z,101035.50
2023-05-21T09:09:43.988Z,101025.09
2023-05-21T09:10:50.679Z,101023.42
2023-05-21T09:11:56.574Z,101021.39
2023-05-21T09:13:02.380Z,101010.23
2023-05-21T09:14:07.205Z,101024.06
2023-05-21T09:15:14.111Z,101019.76
2023-05-21T09:16:19.819Z,101027.48
2023-05-21T09:17:25.030Z,101018.56
2023-05-21T09:18:32.080Z,101019.06
2023-05-21T09:19:38.596Z,101020.53
2023-05-21T09:20:44.088Z,101005.98
2023-05-21T09:21:48.627Z,101014.98
2023-05-21T09:22:55.338Z,101018.15
2023-05-21T09:24:01.558Z,101019.70
2023-05-21T09:25:09.818Z,101020.72
2023-05-21T09:26:14.820Z,101019.73
2023-05-21T09:27:20.938Z,101022.34
2023-05-21T09:28:25.552Z,101012.92
2023-05-21T09:29:30.312Z,101010.67
2023-05-21T09:30:36.140Z,101016.08
2023-05-21T09:31:46.403Z,101008.41
2023-05-21T09:32:58.275Z,101003.50
2023-05-21T09:34:03.387Z,101023.39
2023-05-21T09:36:23.686Z,101010.49
2023-05-21T09:37:30.335Z,101004.06
2023-05-21T09:38:36.479Z,101010.49
2023-05-21T09:39:42.718Z,101015.19
2023-05-21T09:40:47.891Z,101019.05
2023-05-21T09:41:52.997Z,101014.73
2023-05-21T09:42:58.110Z,101010.55
2023-05-21T09:44:03.880Z,101020.81
2023-05-21T09:45:09.677Z,101011.33
2023-05-21T09:46:14.836Z,101014.29
2023-05-21T09:47:22.312Z,101008.07
2023-05-21T09:48:41.091Z,101013.41
2023-05-21T09:49:48.012Z,101007.02
2023-05-21T09:50:53.315Z,101003.72
2023-05-21T09:52:01.532Z,101001.95
2023-05-21T09:53:06.153Z,101007.09
2023-05-21T09:54:11.215Z,101001.25
2023-05-21T09:55:17.092Z,100998.97
2023-05-21T09:57:32.866Z,100982.77
2023-05-21T09:58:37.955Z,101002.13
2023-05-21T09:59:43.121Z,100992.91
2023-05-21T10:00:48.317Z,100992.63
2023-05-21T10:01:53.631Z,100992.63
2023-05-21T10:02:59.362Z,100994.52
2023-05-21T10:04:06.827Z,100990.28
2023-05-21T10:05:09.590Z,100992.94
2023-05-21T10:06:14.857Z,100998.59
2023-05-21T10:07:24.678Z,100990.20
2023-05-21T10:08:29.348Z,100992.94
2023-05-21T10:09:35.001Z,100985.98
2023-05-21T10:10:39.480Z,100982.31
2023-05-21T10:11:46.620Z,100987.94
2023-05-21T10:14:25.627Z,100989.63
2023-05-21T10:15:30.596Z,100991.83
2023-05-21T10:16:34.047Z,100977.41
2023-05-21T10:17:39.168Z,100981.54
2023-05-21T10:18:43.939Z,100980.08
2023-05-21T10:19:49.848Z,100975.80
2023-05-21T10:20:55.037Z,100981.76
2023-05-21T10:21:57.925Z,100987.98
2023-05-21T10:23:02.169Z,100985.70
2023-05-21T10:24:08.802Z,100968.31
2023-05-21T10:25:14.901Z,100976.20
2023-05-21T10:26:19.684Z,100973.55
2023-05-21T10:27:24.147Z,100978.31
2023-05-21T10:28:29.179Z,100972.91
2023-05-21T10:29:33.870Z,100975.23
2023-05-21T10:30:38.858Z,100967.56
2023-05-21T10:31:44.225Z,100973.19
2023-05-21T10:32:49.359Z,100978.59
2023-05-21T10:33:55.224Z,100976.08
2023-05-21T10:34:59.303Z,100981.76
2023-05-21T10:36:04.944Z,100975.41
2023-05-21T10:37:10.321Z,101001.01
2023-05-21T10:38:14.556Z,100971.05
2023-05-21T10:39:19.366Z,100971.33
2023-05-21T10:40:24.477Z,100968.53
2023-05-21T10:41:29.565Z,100978.30
2023-05-21T10:42:35.561Z,100969.41
2023-05-21T10:43:47.761Z,100975.85
2023-05-21T10:45:17.155Z,100973.53
2023-05-21T10:46:28.123Z,100981.66
2023-05-21T10:48:02.556Z,100964.61
2023-05-21T10:49:16.887Z,100972.22
2023-05-21T10:50:34.912Z,100975.86
2023-05-21T10:52:12.817Z,100968.74
2023-05-21T10:53:32.760Z,100972.39
2023-05-21T10:54:38.818Z,100979.94
2023-05-21T10:55:59.077Z,100982.81
2023-05-21T10:57:10.677Z,100978.27
2023-05-21T10:58:22.697Z,100978.05
2023-05-21T10:59:46.665Z,100977.05
2023-05-21T11:00:52.200Z,100977.81
2023-05-21T11:01:57.399Z,100978.55
2023-05-21T11:03:02.859Z,100981.64
2023-05-21T11:04:07.131Z,100973.45
2023-05-21T11:05:12.296Z,100978.05
2023-05-21T11:06:24.894Z,100977.01
2023-05-21T11:07:56.248Z,100974.46
2023-05-21T11:10:42.065Z,100965.86
2023-05-21T11:11:58.717Z,100976.34
2023-05-21T11:13:17.088Z,100973.37
2023-05-21T11:14:35.190Z,100981.08
2023-05-21T11:16:03.960Z,100973.13
2023-05-21T11:17:15.233Z,100970.31
2023-05-21T11:18:20.312Z,100983.09
2023-05-21T11:19:27.186Z,100984.91
2023-05-21T11:20:35.866Z,100984.91
2023-05-21T11:21:40.583Z,100981.55
2023-05-21T11:22:44.423Z,100977.97
2023-05-21T11:23:53.961Z,100981.55
2023-05-21T11:25:00.607Z,100980.78
2023-05-21T11:26:05.470Z,100981.05
2023-05-21T11:27:10.597Z,100971.83
2023-05-21T11:28:15.301Z,100973.38
2023-05-21T11:29:20.935Z,100982.59
2023-05-21T11:30:27.715Z,100983.83
2023-05-21T11:31:32.221Z,100982.29
2023-05-21T11:33:49.994Z,100976.69
2023-05-21T11:34:54.937Z,100980.44
2023-05-21T11:36:00.689Z,100971.48
2023-05-21T11:37:21.060Z,100973.73
2023-05-21T11:38:25.794Z,100981.67
2023-05-21T11:39:30.533Z,100984.56
2023-05-21T11:40:36.375Z,100973.06
2023-05-21T11:42:03.234Z,100975.68
2023-05-21T11:43:07.295Z,100975.98
2023-05-21T11:44:12.129Z,100973.72
2023-05-21T11:45:18.164Z,100963.50
2023-05-21T11:46:23.927Z,100982.99
2023-05-21T11:47:29.660Z,100969.95
2023-05-21T11:48:34.774Z,100976.64
2023-05-21T11:49:40.542Z,100971.02
2023-05-21T11:50:45.281Z,100962.31
2023-05-21T11:51:50.400Z,100956.42
2023-05-21T11:52:55.442Z,100959.75
2023-05-21T11:54:00.148Z,100963.59
2023-05-21T11:55:05.196Z,100973.34
2023-05-21T11:56:09.699Z,100981.05
2023-05-21T11:57:14.533Z,100974.12
2023-05-21T11:58:20.545Z,100969.51
2023-05-21T11:59:25.178Z,100973.34
2023-05-21T12:00:29.912Z,100964.11
2023-05-21T12:01:35.108Z,100969.76
2023-05-21T12:02:39.925Z,100967.44
2023-05-21T12:03:44.723Z,100967.20
2023-05-21T12:04:51.354Z,100962.84
2023-05-21T12:05:56.548Z,100962.05
2023-05-21T12:07:01.002Z,100962.56
2023-05-21T12:08:06.574Z,100968.18
2023-05-21T12:09:12.470Z,100960.98
2023-05-21T12:10:18.367Z,100966.89
2023-05-21T12:11:23.240Z,100971.49
2023-05-21T12:12:38.547Z,100966.36
2023-05-21T12:13:35.974Z,100976.09
2023-05-21T12:14:38.660Z,100969.42
2023-05-21T12:15:42.920Z,100962.75
2023-05-21T12:16:48.381Z,100964.54
2023-05-21T12:17:53.632Z,100972.97
2023-05-21T12:18:58.750Z,100958.87
2023-05-21T12:20:03.415Z,100958.09
2023-05-21T12:21:08.942Z,100961.14
2023-05-21T12:22:14.767Z,100957.05
2023-05-21T12:23:23.495Z,100950.38
2023-05-21T12:24:29.011Z,100967.80
2023-05-21T12:25:33.855Z,100955.22
2023-05-21T12:26:38.967Z,100962.13
2023-05-21T12:27:43.998Z,100967.50
2023-05-21T12:28:49.192Z,100960.83
2023-05-21T12:29:53.835Z,100963.88
2023-05-21T12:30:58.414Z,100955.70
2023-05-21T12:32:04.120Z,100953.91
2023-05-21T12:33:09.523Z,100958.78
2023-05-21T12:34:14.195Z,100951.33
2023-05-21T12:35:23.098Z,100956.47
2023-05-21T12:36:29.553Z,100957.50
2023-05-21T12:37:34.052Z,100954.92
2023-05-21T12:38:37.121Z,100961.06
2023-05-21T12:40:51.972Z,100950.14
2023-05-21T12:41:54.211Z,100955.24
2023-05-21T12:42:58.534Z,100956.55
2023-05-21T12:44:03.258Z,100949.66
2023-05-21T12:45:07.900Z,100947.62
2023-05-21T12:46:12.532Z,100957.62
2023-05-21T12:47:17.773Z,100953.26
2023-05-21T12:48:22.539Z,100943.77
2023-05-21T12:49:34.863Z,100957.62
2023-05-21T12:50:41.712Z,100948.14
2023-05-21T12:51:47.267Z,100949.41
2023-05-21T12:52:52.385Z,100949.92
2023-05-21T12:53:56.820Z,100952.50
2023-05-21T12:55:01.932Z,100945.55
2023-05-21T12:57:20.670Z,100951.25
2023-05-21T12:58:24.943Z,100945.85
2023-05-21T12:59:30.123Z,100952.02